createdAt,value
2022-08-05T00:00:08.862Z,30.18
2022-08-05T00:00:22.356Z,30.17
2022-08-05T00:00:35.278Z,30.14
2022-08-05T00:01:20.185Z,30.15
2022-08-05T00:01:35.745Z,30.12
2022-08-05T00:01:49.777Z,30.11
2022-08-05T00:02:07.194Z,30.11
2022-08-05T00:02:21.077Z,30.07
2022-08-05T00:02:34.058Z,30.08
2022-08-05T00:02:51.809Z,30.09
2022-08-05T00:03:04.976Z,30.10
2022-08-05T00:03:19.053Z,30.09
2022-08-05T00:03:31.909Z,30.08
2022-08-05T00:03:44.895Z,30.08
2022-08-05T00:03:58.376Z,30.05
2022-08-05T00:04:11.250Z,30.06
2022-08-05T00:04:26.396Z,30.05
2022-08-05T00:04:40.299Z,30.02
2022-08-05T00:04:55.572Z,30.04
2022-08-05T00:05:09.123Z,30.06
2022-08-05T00:06:04.801Z,30.01
2022-08-05T00:06:29.109Z,29.99
2022-08-05T00:06:47.214Z,30.04
2022-08-05T00:07:26.901Z,30.03
2022-08-05T00:08:00.169Z,30.05
2022-08-05T00:08:34.079Z,30.03
2022-08-05T00:08:43.110Z,29.99
2022-08-05T00:08:56.397Z,30.01
2022-08-05T00:09:12.928Z,29.96
2022-08-05T00:09:28.909Z,30.00
2022-08-05T00:09:44.656Z,30.01
2022-08-05T00:09:58.822Z,29.97
2022-08-05T00:10:11.689Z,29.97
2022-08-05T00:10:27.097Z,29.97
2022-08-05T00:10:40.243Z,29.96
2022-08-05T00:10:53.136Z,29.96
2022-08-05T00:11:23.892Z,29.97
2022-08-05T00:11:49.545Z,29.96
2022-08-05T00:12:09.165Z,30.01
2022-08-05T00:12:26.073Z,30.00
2022-08-05T00:12:56.459Z,30.03
2022-08-05T00:13:09.965Z,30.03
2022-08-05T00:13:38.800Z,30.02
2022-08-05T00:13:52.933Z,30.03
2022-08-05T00:14:12.777Z,30.01
2022-08-05T00:14:31.528Z,30.00
2022-08-05T00:14:44.618Z,30.03
2022-08-05T00:14:57.945Z,30.03
2022-08-05T00:15:54.445Z,30.03
2022-08-05T00:15:57.525Z,30.00
2022-08-05T00:16:14.203Z,29.98
2022-08-05T00:16:35.418Z,29.94
2022-08-05T00:16:53.233Z,29.98
2022-08-05T00:17:19.612Z,29.96
2022-08-05T00:17:33.435Z,29.98
2022-08-05T00:17:46.493Z,30.00
2022-08-05T00:18:02.550Z,30.00
2022-08-05T00:18:22.568Z,29.98
2022-08-05T00:18:38.032Z,29.98
2022-08-05T00:18:51.186Z,29.98
2022-08-05T00:19:04.096Z,29.99
2022-08-05T00:19:16.976Z,29.98
2022-08-05T00:19:43.998Z,29.98
2022-08-05T00:20:02.685Z,29.98
2022-08-05T00:20:16.016Z,29.99
2022-08-05T00:20:33.310Z,29.99
2022-08-05T00:20:46.225Z,30.01
2022-08-05T00:21:01.669Z,29.95
2022-08-05T00:21:14.913Z,29.94
2022-08-05T00:21:30.691Z,29.96
2022-08-05T00:21:43.689Z,29.93
2022-08-05T00:21:56.872Z,29.93
2022-08-05T00:22:11.255Z,29.93
2022-08-05T00:22:24.487Z,29.93
2022-08-05T00:22:37.580Z,29.94
2022-08-05T00:23:02.319Z,29.91
2022-08-05T00:23:44.424Z,29.90
2022-08-05T00:24:09.941Z,29.93
2022-08-05T00:24:24.517Z,29.94
2022-08-05T00:24:43.636Z,29.94
2022-08-05T00:24:56.525Z,29.94
2022-08-05T00:25:10.413Z,29.94
2022-08-05T00:25:25.745Z,29.94
2022-08-05T00:25:46.000Z,29.93
2022-08-05T00:25:59.258Z,29.93
2022-08-05T00:26:15.192Z,29.91
2022-08-05T00:26:29.390Z,29.92
2022-08-05T00:26:51.978Z,29.92
2022-08-05T00:27:10.550Z,29.89
2022-08-05T00:27:36.077Z,29.85
2022-08-05T00:27:49.470Z,29.85
2022-08-05T00:28:03.796Z,29.85
2022-08-05T00:28:16.714Z,29.85
2022-08-05T00:28:42.376Z,29.86
2022-08-05T00:28:58.607Z,29.87
2022-08-05T00:29:11.479Z,29.89
2022-08-05T00:29:25.490Z,29.89
2022-08-05T00:29:38.871Z,29.89
2022-08-05T00:29:51.722Z,29.93
2022-08-05T00:30:11.290Z,29.93
2022-08-05T00:30:31.936Z,29.90
2022-08-05T00:30:45.146Z,29.92
2022-08-05T00:31:05.554Z,29.90
2022-08-05T00:31:53.255Z,29.90
2022-08-05T00:32:13.553Z,29.88
2022-08-05T00:32:27.000Z,29.88
2022-08-05T00:32:40.458Z,29.84
2022-08-05T00:32:53.487Z,29.85
2022-08-05T00:33:06.754Z,29.87
2022-08-05T00:34:54.216Z,29.83
2022-08-05T00:34:56.490Z,29.86
2022-08-05T00:34:57.051Z,29.86
2022-08-05T00:35:07.903Z,29.86
2022-08-05T00:35:20.907Z,29.84
2022-08-05T00:35:33.847Z,29.83
2022-08-05T00:36:15.024Z,29.87
2022-08-05T00:37:09.766Z,29.86
2022-08-05T00:37:12.745Z,29.87
2022-08-05T00:37:26.419Z,29.84
2022-08-05T00:37:53.022Z,29.82
2022-08-05T00:38:06.738Z,29.83
2022-08-05T00:38:28.941Z,29.85
2022-08-05T00:38:46.858Z,29.84
2022-08-05T00:38:59.772Z,29.87
2022-08-05T00:39:13.429Z,29.83
2022-08-05T00:39:26.507Z,29.82
2022-08-05T00:39:58.412Z,29.80
2022-08-05T00:40:12.340Z,29.79
2022-08-05T00:40:27.004Z,29.79
2022-08-05T00:40:53.396Z,29.80
2022-08-05T00:41:11.705Z,29.80
2022-08-05T00:41:29.264Z,29.80
2022-08-05T00:42:02.123Z,29.77
2022-08-05T00:42:32.167Z,29.76
2022-08-05T00:42:48.291Z,29.77
2022-08-05T00:43:02.896Z,29.81
2022-08-05T00:43:20.623Z,29.83
2022-08-05T00:43:46.734Z,29.83
2022-08-05T00:44:00.738Z,29.79
2022-08-05T00:44:14.919Z,29.77
2022-08-05T00:44:30.848Z,29.77
2022-08-05T00:44:44.456Z,29.76
2022-08-05T00:44:57.361Z,29.77
2022-08-05T00:45:11.625Z,29.75
2022-08-05T00:45:37.927Z,29.76
2022-08-05T00:45:52.088Z,29.80
2022-08-05T00:46:05.640Z,29.84
2022-08-05T00:46:19.727Z,29.81
2022-08-05T00:46:54.244Z,29.80
2022-08-05T00:47:15.111Z,29.74
2022-08-05T00:47:52.900Z,29.77
2022-08-05T00:48:05.313Z,29.75
2022-08-05T00:48:27.394Z,29.78
2022-08-05T00:48:50.722Z,29.77
2022-08-05T00:49:04.553Z,29.82
2022-08-05T00:49:20.774Z,29.82
2022-08-05T00:49:51.487Z,29.80
2022-08-05T00:50:05.069Z,29.79
2022-08-05T00:50:18.499Z,29.76
2022-08-05T00:50:33.937Z,29.78
2022-08-05T00:50:48.222Z,29.79
2022-08-05T00:51:01.187Z,29.78
2022-08-05T00:51:50.318Z,29.79
2022-08-05T00:51:54.957Z,29.76
2022-08-05T00:52:07.874Z,29.80
2022-08-05T00:52:28.518Z,29.81
2022-08-05T00:52:41.728Z,29.75
2022-08-05T00:52:58.430Z,29.79
2022-08-05T00:53:44.908Z,29.76
2022-08-05T00:54:01.084Z,29.79
2022-08-05T00:54:15.858Z,29.79
2022-08-05T00:54:30.349Z,29.74
2022-08-05T00:54:43.446Z,29.78
2022-08-05T00:54:56.440Z,29.81
2022-08-05T00:55:09.512Z,29.80
2022-08-05T00:55:22.885Z,29.81
2022-08-05T00:55:42.780Z,29.80
2022-08-05T00:55:56.684Z,29.82
2022-08-05T00:56:09.520Z,29.77
2022-08-05T00:56:23.096Z,29.77
2022-08-05T00:56:36.493Z,29.77
2022-08-05T00:56:51.542Z,29.79
2022-08-05T00:57:04.972Z,29.76
2022-08-05T00:57:17.923Z,29.77
2022-08-05T00:57:55.401Z,29.73
2022-08-05T00:58:07.295Z,29.70
2022-08-05T00:58:27.397Z,29.69
2022-08-05T00:58:42.594Z,29.72
2022-08-05T00:58:57.950Z,29.73
2022-08-05T00:59:13.222Z,29.68
2022-08-05T00:59:26.222Z,29.68
2022-08-05T00:59:48.729Z,29.70
2022-08-05T01:00:02.235Z,29.73
2022-08-05T01:00:15.427Z,29.70
2022-08-05T01:00:30.509Z,29.71
2022-08-05T01:00:44.674Z,29.72
2022-08-05T01:00:57.830Z,29.69
2022-08-05T01:01:11.636Z,29.67
2022-08-05T01:01:42.737Z,29.69
2022-08-05T01:01:58.590Z,29.71
2022-08-05T01:02:13.799Z,29.72
2022-08-05T01:02:29.654Z,29.71
2022-08-05T01:02:43.615Z,29.71
2022-08-05T01:02:57.543Z,29.70
2022-08-05T01:03:22.585Z,29.67
2022-08-05T01:03:37.330Z,29.68
2022-08-05T01:03:52.029Z,29.66
2022-08-05T01:04:14.081Z,29.66
2022-08-05T01:04:29.765Z,29.67
2022-08-05T01:04:42.925Z,29.68
2022-08-05T01:04:56.434Z,29.67
2022-08-05T01:05:10.058Z,29.68
2022-08-05T01:05:23.859Z,29.69
2022-08-05T01:05:37.798Z,29.73
2022-08-05T01:05:54.510Z,29.71
2022-08-05T01:06:11.387Z,29.71
2022-08-05T01:06:32.719Z,29.71
2022-08-05T01:06:48.603Z,29.66
2022-08-05T01:07:01.901Z,29.67
2022-08-05T01:07:18.231Z,29.65
2022-08-05T01:07:31.595Z,29.69
2022-08-05T01:08:30.697Z,29.68
2022-08-05T01:08:31.611Z,29.69
2022-08-05T01:08:50.624Z,29.70
2022-08-05T01:09:06.198Z,29.68
2022-08-05T01:09:19.981Z,29.66
2022-08-05T01:09:33.265Z,29.65
2022-08-05T01:09:46.157Z,29.67
2022-08-05T01:10:09.157Z,29.68
2022-08-05T01:10:25.918Z,29.64
2022-08-05T01:10:52.550Z,29.61
2022-08-05T01:11:22.399Z,29.63
2022-08-05T01:11:37.665Z,29.60
2022-08-05T01:11:51.976Z,29.63
2022-08-05T01:12:18.720Z,29.62
2022-08-05T01:12:31.916Z,29.65
2022-08-05T01:13:00.413Z,29.65
2022-08-05T01:13:58.494Z,29.66
2022-08-05T01:14:16.334Z,29.62
2022-08-05T01:14:40.014Z,29.59
2022-08-05T01:14:58.360Z,29.56
2022-08-05T01:15:36.413Z,29.57
2022-08-05T01:15:48.747Z,29.59
2022-08-05T01:16:03.113Z,29.61
2022-08-05T01:16:26.079Z,29.61
2022-08-05T01:16:54.719Z,29.64
2022-08-05T01:17:17.894Z,29.56
2022-08-05T01:17:44.068Z,29.57
2022-08-05T01:18:00.404Z,29.57
2022-08-05T01:18:16.353Z,29.58
2022-08-05T01:18:33.660Z,29.58
2022-08-05T01:18:48.144Z,29.58
2022-08-05T01:19:16.335Z,29.59
2022-08-05T01:20:01.023Z,29.58
2022-08-05T01:20:34.513Z,29.59
2022-08-05T01:20:55.523Z,29.60
2022-08-05T01:21:38.214Z,29.60
2022-08-05T01:22:00.620Z,29.60
2022-08-05T01:22:27.730Z,29.56
2022-08-05T01:22:46.810Z,29.55
2022-08-05T01:23:22.796Z,29.55
2022-08-05T01:23:53.040Z,29.54
2022-08-05T01:24:35.688Z,29.52
2022-08-05T01:25:20.806Z,29.52
2022-08-05T01:26:12.901Z,29.55
2022-08-05T01:26:34.240Z,29.49
2022-08-05T01:27:32.962Z,29.54
2022-08-05T01:28:04.571Z,29.55
2022-08-05T01:28:23.143Z,29.53
2022-08-05T01:28:44.069Z,29.49
2022-08-05T01:29:11.430Z,29.50
2022-08-05T01:29:32.968Z,29.46
2022-08-05T01:29:50.502Z,29.51
2022-08-05T01:30:05.134Z,29.51
2022-08-05T01:30:33.747Z,29.52
2022-08-05T01:30:57.321Z,29.48
2022-08-05T01:31:34.532Z,29.49
2022-08-05T01:32:00.760Z,29.49
2022-08-05T01:32:18.464Z,29.50
2022-08-05T01:32:33.855Z,29.49
2022-08-05T01:32:46.890Z,29.49
2022-08-05T01:32:59.745Z,29.49
2022-08-05T01:33:13.006Z,29.52
2022-08-05T01:33:35.123Z,29.49
2022-08-05T01:33:53.846Z,29.48
2022-08-05T01:34:17.770Z,29.47
2022-08-05T01:34:39.135Z,29.44
2022-08-05T01:34:58.721Z,29.46
2022-08-05T01:35:50.248Z,29.45
2022-08-05T01:35:53.167Z,29.46
2022-08-05T01:36:12.867Z,29.50
2022-08-05T01:36:31.703Z,29.50
2022-08-05T01:36:55.142Z,29.48
2022-08-05T01:37:25.067Z,29.44
2022-08-05T01:37:44.919Z,29.44
2022-08-05T01:37:58.599Z,29.46
2022-08-05T01:38:24.767Z,29.48
2022-08-05T01:38:41.920Z,29.48
2022-08-05T01:38:55.841Z,29.48
2022-08-05T01:39:08.792Z,29.48
2022-08-05T01:39:46.371Z,29.48
2022-08-05T01:39:55.041Z,29.48
2022-08-05T01:40:12.755Z,29.43
2022-08-05T01:40:29.174Z,29.44
2022-08-05T01:40:42.214Z,29.43
2022-08-05T01:40:56.980Z,29.44
2022-08-05T01:41:09.955Z,29.45
2022-08-05T01:41:25.539Z,29.45
2022-08-05T01:41:38.741Z,29.47
2022-08-05T01:41:57.805Z,29.48
2022-08-05T01:42:12.472Z,29.44
2022-08-05T01:42:27.211Z,29.45
2022-08-05T01:42:40.210Z,29.48
2022-08-05T01:42:53.781Z,29.47
2022-08-05T01:43:06.648Z,29.45
2022-08-05T01:43:22.267Z,29.45
2022-08-05T01:43:36.986Z,29.42
2022-08-05T01:43:53.804Z,29.46
2022-08-05T01:44:09.881Z,29.48
2022-08-05T01:44:22.955Z,29.48
2022-08-05T01:44:54.177Z,29.46
2022-08-05T01:45:08.378Z,29.43
2022-08-05T01:45:21.575Z,29.42
2022-08-05T01:45:34.854Z,29.42
2022-08-05T01:45:56.429Z,29.43
2022-08-05T01:46:16.290Z,29.42
2022-08-05T01:46:46.381Z,29.45
2022-08-05T01:46:59.599Z,29.40
2022-08-05T01:47:12.673Z,29.43
2022-08-05T01:47:38.888Z,29.40
2022-08-05T01:47:54.576Z,29.40
2022-08-05T01:48:10.224Z,29.39
2022-08-05T01:48:24.033Z,29.38
2022-08-05T01:48:37.192Z,29.38
2022-08-05T01:48:50.352Z,29.38
2022-08-05T01:49:23.000Z,29.36
2022-08-05T01:50:00.106Z,29.37
2022-08-05T01:50:50.999Z,29.39
2022-08-05T01:51:12.460Z,29.41
2022-08-05T01:51:26.171Z,29.42
2022-08-05T01:51:43.143Z,29.41
2022-08-05T01:52:12.437Z,29.43
2022-08-05T01:52:32.386Z,29.43
2022-08-05T01:52:49.875Z,29.48
2022-08-05T01:53:04.757Z,29.46
2022-08-05T01:53:17.726Z,29.43
2022-08-05T01:53:57.048Z,29.41
2022-08-05T01:54:11.498Z,29.42
2022-08-05T01:54:46.192Z,29.44
2022-08-05T01:55:01.653Z,29.41
2022-08-05T01:55:18.402Z,29.37
2022-08-05T01:55:32.596Z,29.38
2022-08-05T01:55:49.303Z,29.39
2022-08-05T01:56:04.291Z,29.38
2022-08-05T01:58:09.432Z,29.38
2022-08-05T01:58:10.720Z,29.35
2022-08-05T01:58:12.460Z,29.36
2022-08-05T01:58:12.558Z,29.37
2022-08-05T01:58:40.561Z,29.38
2022-08-05T01:58:58.331Z,29.38
2022-08-05T01:59:15.907Z,29.38
2022-08-05T01:59:28.817Z,29.35
2022-08-05T01:59:46.952Z,29.33
2022-08-05T02:00:01.270Z,29.36
2022-08-05T02:00:14.508Z,29.36
2022-08-05T02:00:30.368Z,29.36
2022-08-05T02:00:45.866Z,29.37
2022-08-05T02:00:59.459Z,29.35
2022-08-05T02:01:13.598Z,29.36
2022-08-05T02:01:26.609Z,29.35
2022-08-05T02:01:40.695Z,29.35
2022-08-05T02:01:54.757Z,29.34
2022-08-05T02:02:10.711Z,29.35
2022-08-05T02:02:25.801Z,29.35
2022-08-05T02:02:46.447Z,29.37
2022-08-05T02:03:24.389Z,29.41
2022-08-05T02:03:44.982Z,29.38
2022-08-05T02:03:57.906Z,29.36
2022-08-05T02:04:10.916Z,29.38
2022-08-05T02:04:24.298Z,29.38
2022-08-05T02:04:38.605Z,29.39
2022-08-05T02:04:54.902Z,29.38
2022-08-05T02:05:11.817Z,29.34
2022-08-05T02:05:30.527Z,29.36
2022-08-05T02:05:47.493Z,29.35
2022-08-05T02:06:03.713Z,29.34
2022-08-05T02:06:38.270Z,29.33
2022-08-05T02:06:51.619Z,29.32
2022-08-05T02:07:04.600Z,29.33
2022-08-05T02:07:22.057Z,29.32
2022-08-05T02:07:35.668Z,29.35
2022-08-05T02:07:59.925Z,29.32
2022-08-05T02:08:13.901Z,29.30
2022-08-05T02:08:54.800Z,29.29
2022-08-05T02:09:10.941Z,29.28
2022-08-05T02:09:28.161Z,29.33
2022-08-05T02:09:41.285Z,29.31
2022-08-05T02:09:54.161Z,29.32
2022-08-05T02:10:07.894Z,29.29
2022-08-05T02:10:21.766Z,29.30
2022-08-05T02:10:48.411Z,29.34
2022-08-05T02:11:05.343Z,29.31
2022-08-05T02:11:23.819Z,29.35
2022-08-05T02:12:25.452Z,29.32
2022-08-05T02:12:51.891Z,29.33
2022-08-05T02:13:19.288Z,29.32
2022-08-05T02:13:36.466Z,29.35
2022-08-05T02:14:34.940Z,29.34
2022-08-05T02:15:03.847Z,29.28
2022-08-05T02:15:19.823Z,29.28
2022-08-05T02:15:38.079Z,29.31
2022-08-05T02:45:52.366Z,29.03
2022-08-05T02:46:06.794Z,29.04
2022-08-05T02:46:19.873Z,29.09
2022-08-05T02:46:43.839Z,29.12
2022-08-05T02:47:08.274Z,29.12
2022-08-05T02:47:22.911Z,29.11
2022-08-05T02:48:06.623Z,29.09
2022-08-05T02:48:12.554Z,29.11
2022-08-05T02:48:29.004Z,29.10
2022-08-05T02:48:43.469Z,29.10
2022-08-05T02:48:56.422Z,29.11
2022-08-05T02:49:12.519Z,29.10
2022-08-05T02:49:37.964Z,29.13
2022-08-05T02:49:53.642Z,29.12
2022-08-05T02:50:07.808Z,29.09
2022-08-05T02:50:24.715Z,29.10
2022-08-05T02:50:37.572Z,29.10
2022-08-05T02:50:51.808Z,29.09
2022-08-05T02:51:04.676Z,29.10
2022-08-05T02:51:18.532Z,29.09
2022-08-05T02:52:03.853Z,29.11
2022-08-05T02:52:29.609Z,29.12
2022-08-05T02:52:44.055Z,29.08
2022-08-05T02:52:58.810Z,29.07
2022-08-05T02:53:18.839Z,29.07
2022-08-05T02:53:39.406Z,29.07
2022-08-05T02:53:54.707Z,29.07
2022-08-05T02:54:07.846Z,29.06
2022-08-05T02:54:35.617Z,29.04
2022-08-05T02:54:52.113Z,29.02
2022-08-05T02:55:10.672Z,29.04
2022-08-05T02:55:54.486Z,29.04
2022-08-05T02:56:00.395Z,29.06
2022-08-05T02:56:16.074Z,29.05
2022-08-05T02:56:32.143Z,29.05
2022-08-05T02:56:45.994Z,29.05
2022-08-05T02:56:59.001Z,29.04
2022-08-05T02:58:10.667Z,29.02
2022-08-05T02:58:11.928Z,29.00
2022-08-05T02:58:21.665Z,29.01
2022-08-05T02:58:34.896Z,28.99
2022-08-05T02:58:51.253Z,28.99
2022-08-05T02:59:04.886Z,29.00
2022-08-05T02:59:17.931Z,28.99
2022-08-05T02:59:34.609Z,28.99
2022-08-05T03:00:01.383Z,28.98
2022-08-05T03:00:15.023Z,28.98
2022-08-05T03:00:27.935Z,28.99
2022-08-05T03:00:41.191Z,28.98
2022-08-05T03:01:01.906Z,28.99
2022-08-05T03:01:19.444Z,29.01
2022-08-05T03:01:32.619Z,29.03
2022-08-05T03:01:45.731Z,29.03
2022-08-05T03:02:00.730Z,29.04
2022-08-05T03:02:13.887Z,29.03
2022-08-05T03:02:29.485Z,29.01
2022-08-05T03:02:42.764Z,29.00
2022-08-05T03:02:56.044Z,29.01
2022-08-05T03:03:10.460Z,29.01
2022-08-05T03:03:23.812Z,29.00
2022-08-05T03:04:02.998Z,28.98
2022-08-05T03:04:15.785Z,29.01
2022-08-05T03:04:28.734Z,29.04
2022-08-05T03:04:42.735Z,29.04
2022-08-05T03:04:55.998Z,29.04
2022-08-05T03:05:10.324Z,29.00
2022-08-05T03:06:55.502Z,29.00
2022-08-05T03:06:55.671Z,28.99
2022-08-05T03:06:56.816Z,28.98
2022-08-05T03:07:02.213Z,29.02
2022-08-05T03:07:17.598Z,28.99
2022-08-05T03:08:00.979Z,28.98
2022-08-05T03:08:29.593Z,28.98
2022-08-05T03:08:43.290Z,28.95
2022-08-05T03:08:56.473Z,28.96
2022-08-05T03:09:12.222Z,28.95
2022-08-05T03:09:37.661Z,28.95
2022-08-05T03:09:52.042Z,28.98
2022-08-05T03:10:06.169Z,29.00
2022-08-05T03:10:21.719Z,28.99
2022-08-05T03:10:37.539Z,28.98
2022-08-05T03:11:01.281Z,28.97
2022-08-05T03:11:55.114Z,28.97
2022-08-05T03:11:58.346Z,28.96
2022-08-05T03:12:11.734Z,28.96
2022-08-05T03:12:34.574Z,28.95
2022-08-05T03:12:47.663Z,28.94
2022-08-05T03:13:16.582Z,28.93
2022-08-05T03:13:51.132Z,28.93
2022-08-05T03:14:04.174Z,28.96
2022-08-05T03:14:17.208Z,28.98
2022-08-05T03:14:30.230Z,28.94
2022-08-05T03:14:45.600Z,28.96
2022-08-05T03:14:59.195Z,28.96
2022-08-05T03:15:12.279Z,28.99
2022-08-05T03:15:25.417Z,28.99
2022-08-05T03:15:38.573Z,28.98
2022-08-05T03:15:51.872Z,28.96
2022-08-05T03:16:04.973Z,28.94
2022-08-05T03:16:17.847Z,28.93
2022-08-05T03:16:32.501Z,28.94
2022-08-05T03:16:48.832Z,28.96
2022-08-05T03:17:08.947Z,28.96
2022-08-05T03:17:22.241Z,28.96
2022-08-05T03:17:41.891Z,28.95
2022-08-05T03:17:58.075Z,28.95
2022-08-05T03:18:12.568Z,28.95
2022-08-05T03:18:30.792Z,28.94
2022-08-05T03:18:43.653Z,28.92
2022-08-05T03:19:00.707Z,28.92
2022-08-05T03:19:34.650Z,28.91
2022-08-05T03:19:49.783Z,28.89
2022-08-05T03:20:02.903Z,28.87
2022-08-05T03:20:15.805Z,28.84
2022-08-05T03:20:28.878Z,28.86
2022-08-05T03:20:44.563Z,28.89
2022-08-05T03:21:01.665Z,28.89
2022-08-05T03:21:16.032Z,28.94
2022-08-05T03:21:29.077Z,28.96
2022-08-05T03:21:54.147Z,28.94
2022-08-05T03:22:16.345Z,28.91
2022-08-05T03:22:32.714Z,28.92
2022-08-05T03:22:50.055Z,28.93
2022-08-05T03:23:05.830Z,28.91
2022-08-05T03:23:18.848Z,28.87
2022-08-05T03:23:38.601Z,28.88
2022-08-05T03:23:52.876Z,28.88
2022-08-05T03:24:06.473Z,28.86
2022-08-05T03:24:29.246Z,28.86
2022-08-05T03:24:43.238Z,28.86
2022-08-05T03:25:11.587Z,28.87
2022-08-05T03:26:04.383Z,28.87
2022-08-05T03:26:31.407Z,28.89
2022-08-05T03:26:39.126Z,28.93
2022-08-05T03:26:52.123Z,28.88
2022-08-05T03:27:06.628Z,28.87
2022-08-05T03:27:20.107Z,28.85
2022-08-05T03:27:39.390Z,28.84
2022-08-05T03:28:07.136Z,28.84
2022-08-05T03:28:21.412Z,28.86
2022-08-05T03:28:34.301Z,28.86
2022-08-05T03:28:47.729Z,28.87
2022-08-05T03:29:00.989Z,28.86
2022-08-05T03:29:17.294Z,28.84
2022-08-05T03:29:45.894Z,28.85
2022-08-05T03:30:08.670Z,28.89
2022-08-05T03:30:33.336Z,28.87
2022-08-05T03:30:47.601Z,28.88
2022-08-05T03:31:01.142Z,28.86
2022-08-05T03:31:25.893Z,28.88
2022-08-05T03:31:55.391Z,28.87
2022-08-05T03:32:10.504Z,28.88
2022-08-05T03:32:30.944Z,28.90
2022-08-05T03:32:44.108Z,28.84
2022-08-05T03:32:56.957Z,28.85
2022-08-05T03:33:09.907Z,28.84
2022-08-05T03:33:22.812Z,28.83
2022-08-05T03:33:52.741Z,28.84
2022-08-05T03:34:06.183Z,28.84
2022-08-05T03:34:19.244Z,28.82
2022-08-05T03:34:37.314Z,28.85
2022-08-05T03:34:52.723Z,28.86
2022-08-05T03:35:06.078Z,28.85
2022-08-05T03:35:21.824Z,28.86
2022-08-05T03:35:40.895Z,28.84
2022-08-05T03:35:56.309Z,28.85
2022-08-05T03:36:12.166Z,28.83
2022-08-05T03:36:30.075Z,28.84
2022-08-05T03:36:43.636Z,28.85
2022-08-05T03:36:57.065Z,28.84
2022-08-05T03:37:10.389Z,28.84
2022-08-05T03:37:23.492Z,28.87
2022-08-05T03:37:45.823Z,28.87
2022-08-05T03:37:59.839Z,28.86
2022-08-05T03:38:14.513Z,28.83
2022-08-05T03:38:32.849Z,28.83
2022-08-05T03:38:53.399Z,28.82
2022-08-05T03:39:19.797Z,28.82
2022-08-05T03:39:38.111Z,28.82
2022-08-05T03:40:01.116Z,28.83
2022-08-05T03:40:15.284Z,28.84
2022-08-05T03:40:32.083Z,28.84
2022-08-05T03:40:48.554Z,28.81
2022-08-05T03:41:08.392Z,28.83
2022-08-05T03:41:23.741Z,28.82
2022-08-05T03:41:38.691Z,28.81
2022-08-05T03:41:59.660Z,28.82
2022-08-05T03:42:14.896Z,28.81
2022-08-05T03:42:32.908Z,28.81
2022-08-05T03:42:54.694Z,28.81
2022-08-05T03:43:59.052Z,28.81
2022-08-05T03:44:09.535Z,28.84
2022-08-05T03:44:13.424Z,28.77
2022-08-05T03:44:33.056Z,28.78
2022-08-05T03:44:46.416Z,28.80
2022-08-05T03:45:01.890Z,28.83
2022-08-05T03:45:57.151Z,28.83
2022-08-05T03:46:08.130Z,28.78
2022-08-05T03:46:21.217Z,28.79
2022-08-05T03:46:39.738Z,28.80
2022-08-05T03:46:52.592Z,28.82
2022-08-05T03:47:05.591Z,28.82
2022-08-05T03:47:18.955Z,28.81
2022-08-05T03:47:35.419Z,28.82
2022-08-05T03:47:57.032Z,28.82
2022-08-05T03:48:10.211Z,28.79
2022-08-05T03:48:23.965Z,28.81
2022-08-05T03:48:36.978Z,28.81
2022-08-05T03:48:49.874Z,28.80
2022-08-05T03:49:03.940Z,28.81
2022-08-05T03:49:16.854Z,28.81
2022-08-05T03:49:31.106Z,28.81
2022-08-05T03:50:02.520Z,28.81
2022-08-05T03:50:15.396Z,28.82
2022-08-05T03:50:41.572Z,28.81
2022-08-05T03:52:38.562Z,28.78
2022-08-05T03:52:39.424Z,28.80
2022-08-05T03:52:49.156Z,28.79
2022-08-05T03:55:51.303Z,28.79
2022-08-05T03:55:52.078Z,28.84
2022-08-05T03:55:53.955Z,28.81
2022-08-05T03:56:01.183Z,28.79
2022-08-05T03:56:01.516Z,28.81
2022-08-05T03:56:30.507Z,28.78
2022-08-05T03:56:47.948Z,28.78
2022-08-05T03:57:16.084Z,28.81
2022-08-05T03:57:41.764Z,28.80
2022-08-05T03:57:55.780Z,28.80
2022-08-05T03:58:10.796Z,28.77
2022-08-05T03:58:28.925Z,28.75
2022-08-05T03:58:43.086Z,28.76
2022-08-05T03:59:00.277Z,28.76
2022-08-05T03:59:24.688Z,28.77
2022-08-05T03:59:54.765Z,28.79
2022-08-05T04:00:15.489Z,28.75
2022-08-05T04:00:31.473Z,28.77
2022-08-05T04:00:44.471Z,28.77
2022-08-05T04:01:06.317Z,28.73
2022-08-05T04:01:20.967Z,28.75
2022-08-05T04:01:35.213Z,28.77
2022-08-05T04:01:49.302Z,28.77
2022-08-05T04:02:03.052Z,28.78
2022-08-05T04:02:17.519Z,28.77
2022-08-05T04:02:52.007Z,28.74
2022-08-05T04:03:26.699Z,28.72
2022-08-05T04:03:42.513Z,28.73
2022-08-05T04:04:21.047Z,28.74
2022-08-05T04:04:34.232Z,28.72
2022-08-05T04:04:47.096Z,28.73
2022-08-05T04:05:00.021Z,28.71
2022-08-05T04:05:13.061Z,28.74
2022-08-05T04:05:33.950Z,28.73
2022-08-05T04:05:47.496Z,28.75
2022-08-05T04:06:00.678Z,28.74
2022-08-05T04:06:13.634Z,28.74
2022-08-05T04:06:27.094Z,28.72
2022-08-05T04:06:47.407Z,28.71
2022-08-05T04:07:01.241Z,28.68
2022-08-05T04:07:16.837Z,28.72
2022-08-05T04:07:33.054Z,28.75
2022-08-05T04:07:57.430Z,28.75
2022-08-05T04:08:22.464Z,28.78
2022-08-05T04:08:44.177Z,28.75
2022-08-05T04:09:02.394Z,28.75
2022-08-05T04:09:20.308Z,28.74
2022-08-05T04:09:39.119Z,28.74
2022-08-05T04:10:06.858Z,28.73
2022-08-05T04:10:20.637Z,28.76
2022-08-05T04:10:37.942Z,28.77
2022-08-05T04:10:51.563Z,28.79
2022-08-05T04:11:06.048Z,28.80
2022-08-05T04:11:18.937Z,28.79
2022-08-05T04:11:47.119Z,28.76
2022-08-05T04:12:03.299Z,28.75
2022-08-05T04:12:47.950Z,28.77
2022-08-05T04:13:01.986Z,28.73
2022-08-05T04:13:18.641Z,28.73
2022-08-05T04:13:51.201Z,28.72
2022-08-05T04:14:04.538Z,28.72
2022-08-05T04:14:17.992Z,28.72
2022-08-05T04:14:31.230Z,28.72
2022-08-05T04:14:44.125Z,28.72
2022-08-05T04:14:57.729Z,28.71
2022-08-05T04:15:15.578Z,28.71
2022-08-05T04:15:32.726Z,28.69
2022-08-05T04:16:02.802Z,28.68
2022-08-05T04:16:25.445Z,28.70
2022-08-05T04:16:44.902Z,28.69
2022-08-05T04:17:03.029Z,28.74
2022-08-05T04:17:16.060Z,28.75
2022-08-05T04:17:36.373Z,28.75
2022-08-05T04:18:04.049Z,28.74
2022-08-05T04:18:25.535Z,28.74
2022-08-05T04:18:39.078Z,28.74
2022-08-05T04:18:54.174Z,28.76
2022-08-05T04:19:10.715Z,28.74
2022-08-05T04:19:23.621Z,28.74
2022-08-05T04:19:46.688Z,28.73
2022-08-05T04:20:08.019Z,28.75
2022-08-05T04:20:27.031Z,28.72
2022-08-05T04:20:41.292Z,28.72
2022-08-05T04:20:55.932Z,28.72
2022-08-05T04:21:11.028Z,28.74
2022-08-05T04:22:08.528Z,28.72
2022-08-05T04:22:08.894Z,28.74
2022-08-05T04:22:24.767Z,28.72
2022-08-05T04:22:39.468Z,28.76
2022-08-05T04:22:53.179Z,28.76
2022-08-05T04:23:06.114Z,28.76
2022-08-05T04:24:06.280Z,28.75
2022-08-05T04:24:06.717Z,28.76
2022-08-05T04:24:22.717Z,28.69
2022-08-05T04:24:35.797Z,28.72
2022-08-05T04:24:52.451Z,28.75
2022-08-05T04:25:06.319Z,28.75
2022-08-05T04:25:38.714Z,28.76
2022-08-05T04:26:00.627Z,28.76
2022-08-05T04:26:14.333Z,28.74
2022-08-05T04:26:32.414Z,28.76
2022-08-05T04:26:45.497Z,28.74
2022-08-05T04:26:59.498Z,28.75
2022-08-05T04:27:13.840Z,28.73
2022-08-05T04:27:42.170Z,28.75
2022-08-05T04:28:11.082Z,28.78
2022-08-05T04:28:30.719Z,28.77
2022-08-05T04:28:51.021Z,28.75
2022-08-05T04:29:07.443Z,28.75
2022-08-05T04:29:20.517Z,28.73
2022-08-05T04:29:33.579Z,28.76
2022-08-05T04:29:47.260Z,28.76
2022-08-05T04:30:03.798Z,28.77
2022-08-05T04:30:16.828Z,28.77
2022-08-05T04:30:29.694Z,28.74
2022-08-05T04:30:45.186Z,28.71
2022-08-05T04:30:58.289Z,28.73
2022-08-05T04:31:14.098Z,28.73
2022-08-05T04:31:37.554Z,28.72
2022-08-05T04:31:51.690Z,28.71
2022-08-05T04:32:05.238Z,28.72
2022-08-05T04:32:30.989Z,28.69
2022-08-05T04:32:45.931Z,28.69
2022-08-05T04:32:58.800Z,28.70
2022-08-05T04:33:11.903Z,28.72
2022-08-05T04:33:54.660Z,28.70
2022-08-05T04:34:31.270Z,28.70
2022-08-05T04:34:43.110Z,28.68
2022-08-05T04:34:57.616Z,28.69
2022-08-05T04:35:17.659Z,28.74
2022-08-05T04:36:11.263Z,28.70
2022-08-05T04:36:15.598Z,28.68
2022-08-05T04:36:46.088Z,28.69
2022-08-05T04:37:03.388Z,28.72
2022-08-05T04:37:16.497Z,28.69
2022-08-05T04:38:02.710Z,28.69
2022-08-05T04:38:06.516Z,28.69
2022-08-05T04:38:19.807Z,28.70
2022-08-05T04:38:39.950Z,28.69
2022-08-05T04:38:55.068Z,28.68
2022-08-05T04:39:09.921Z,28.69
2022-08-05T04:39:24.334Z,28.72
2022-08-05T04:39:40.352Z,28.71
2022-08-05T04:39:53.400Z,28.70